Decoded Metar for KALI (ALICE in TX, USA) (IATA:ALI) | Meteo·Mobile Aviation Weather
aviador You're here:

KALI Decoded Metar

ALICE in TX, USA
Report Time2018-12-16 07:53:00
UTC Time2018-12-16 08:02:14
Flight Rules vfr VFR
Wind300° at 04 kt
W.Decomp.*RWY 31: 3.8 kt HW 1.1 kt LCW
RWY 35: 2.2 kt HW 3.3 kt LCW
W.Rank300° ranks 29
Current wind is below 300° avg. (6.8)
Visibility9999 m
Phenomena:N/A
Clouds:N/A
Expected CloudBase > 2,800 ft AGL from Temp-Dew spread
CeilingNone
Temp06°C (ISA -9)
Dew Point-1°C (61% RH)
AAT2.4°C
QNH1025 hPa
Density Alt-1,198 ft
Elevation174 ft
Report Wrong Elevation
Raw Report
KALI 160753Z AUTO 30004KT 10SM CLR 06/M01 A3026 RMK AO2 SLP246
T00561006=

Extra information for KALI:More info

Metar Taf Metar & Taf Last 4 Metars F.Rules Stats Wind Profile Meteogram Temp Stats Airport Information Weather charts Add Link Nearby VenuesMetar ALERT Operation Metar Decoded Social comments

AIRNAV info for KALI